Time;durP1;ratioP1;P1;durP2;ratioP2;P2;SDS_P1;SDS_P2;PMS_P1;PMS_P2;Temp;Humidity;BMP_temperature;BMP_pressure;BME280_temperature;BME280_humidity;BME280_pressure;Samples;Min_cycle;Max_cycle;Signal;HPM_P1;HPM_P2
2022/09/18 00:02:21;;;;;;;7.93;1.20;;;9.40;99.90;;;;;;5091017;28;20044;-78
2022/09/18 00:04:47;;;;;;;9.68;1.00;;;9.40;99.90;;;;;;5090243;28;20170;-78
2022/09/18 00:07:13;;;;;;;9.25;1.58;;;10.20;99.90;;;;;;5091613;28;20047;-78
2022/09/18 00:09:38;;;;;;;6.22;1.23;;;10.60;99.90;;;;;;5067721;28;20039;-78
2022/09/18 00:12:04;;;;;;;10.75;1.58;;;9.40;99.90;;;;;;5073178;28;20186;-77
2022/09/18 00:14:29;;;;;;;12.38;1.67;;;9.40;99.90;;;;;;5091591;28;20040;-77
2022/09/18 00:16:55;;;;;;;12.57;1.50;;;9.50;99.90;;;;;;5090699;28;20059;-78
2022/09/18 00:19:21;;;;;;;8.20;1.13;;;9.50;99.90;;;;;;5091856;28;20030;-78
2022/09/18 00:21:50;;;;;;;10.25;1.40;;;9.50;99.90;;;;;;5090794;28;20523;-77
2022/09/18 00:24:16;;;;;;;9.38;1.50;;;9.50;99.90;;;;;;5089581;28;20399;-77
2022/09/18 00:26:42;;;;;;;11.80;1.63;;;11.10;99.90;;;;;;5072919;28;20044;-77
2022/09/18 00:29:09;;;;;;;8.20;1.25;;;10.70;99.90;;;;;;5091102;28;20031;-78
2022/09/18 00:31:36;;;;;;;9.40;1.67;;;10.10;99.90;;;;;;5089165;28;20088;-79
2022/09/18 00:34:06;;;;;;;7.97;1.08;;;11.00;99.90;;;;;;5072792;28;20040;-78
2022/09/18 00:36:34;;;;;;;8.68;1.50;;;9.60;99.90;;;;;;5091247;28;20155;-77
2022/09/18 00:38:59;;;;;;;9.65;1.20;;;9.60;99.90;;;;;;5089092;28;20041;-76
2022/09/18 00:41:28;;;;;;;9.50;0.95;;;9.70;99.90;;;;;;5091021;28;20050;-78
2022/09/18 00:44:14;;;;;;;3.28;0.93;;;9.70;99.90;;;;;;5088701;28;20090;-77
2022/09/18 00:46:42;;;;;;;6.72;1.08;;;9.70;99.90;;;;;;5090498;28;20094;-78
2022/09/18 00:49:20;;;;;;;7.68;1.13;;;9.70;99.90;;;;;;5087152;28;20457;-77
2022/09/18 00:51:48;;;;;;;12.95;0.93;;;10.20;99.90;;;;;;5088595;28;20047;-77
2022/09/18 00:54:20;;;;;;;9.15;1.35;;;10.40;99.90;;;;;;5090559;28;20052;-77
2022/09/18 00:56:49;;;;;;;9.88;0.98;;;11.10;99.90;;;;;;5090431;28;20406;-78
2022/09/18 00:59:22;;;;;;;8.30;1.10;;;11.60;99.90;;;;;;5071164;28;20608;-77
2022/09/18 01:01:47;;;;;;;8.30;1.20;;;9.50;99.90;;;;;;5090014;28;20044;-78
2022/09/18 01:04:13;;;;;;;6.30;1.08;;;9.50;99.90;;;;;;5072179;28;20048;-77
2022/09/18 01:06:45;;;;;;;7.13;1.30;;;9.60;99.90;;;;;;5089265;28;20471;-76
2022/09/18 01:09:23;;;;;;;11.25;1.27;;;9.60;99.90;;;;;;5084969;28;20083;-77
2022/09/18 01:11:54;;;;;;;12.05;1.75;;;9.60;99.90;;;;;;5090552;28;20044;-76
2022/09/18 01:14:45;;;;;;;12.63;1.85;;;9.70;99.90;;;;;;5064201;28;20036;-77
2022/09/18 01:17:17;;;;;;;12.10;1.88;;;9.70;99.90;;;;;;5090550;28;20082;-77
2022/09/18 01:20:01;;;;;;;8.30;1.17;;;9.80;99.90;;;;;;5089795;28;20304;-77
2022/09/18 01:23:03;;;;;;;7.63;0.93;;;9.70;99.90;;;;;;5089225;28;20051;-78
2022/09/18 01:25:57;;;;;;;9.93;1.40;;;9.80;99.90;;;;;;5035544;28;20056;-79
2022/09/18 01:28:55;;;;;;;11.30;1.33;;;9.90;99.90;;;;;;5114685;27;20036;-78
2022/09/18 01:31:44;;;;;;;12.88;1.33;;;9.90;99.90;;;;;;5081100;28;20071;-78
2022/09/18 01:34:31;;;;;;;15.60;1.60;;;9.90;99.90;;;;;;5089419;28;20047;-77
2022/09/18 01:37:09;;;;;;;10.45;1.17;;;9.90;99.90;;;;;;5090178;28;20079;-78
2022/09/18 01:39:43;;;;;;;10.07;1.50;;;9.90;99.90;;;;;;5082231;28;20115;-78
2022/09/18 01:42:11;;;;;;;9.32;1.63;;;10.30;99.90;;;;;;5087392;28;20151;-78
2022/09/18 01:44:41;;;;;;;10.13;1.10;;;9.90;99.90;;;;;;5090016;28;20040;-77
2022/09/18 01:47:10;;;;;;;8.98;1.02;;;9.90;99.90;;;;;;5071442;28;20051;-77
2022/09/18 01:49:44;;;;;;;10.55;1.67;;;9.90;99.90;;;;;;5087931;28;20434;-77
2022/09/18 01:52:26;;;;;;;;;;;9.80;99.90;;;;;;5089929;28;20056;-77
2022/09/18 01:54:54;;;;;;;14.20;2.33;;;9.90;99.90;;;;;;5066989;28;19955;-78
2022/09/18 01:57:55;;;;;;;14.15;1.83;;;9.90;99.90;;;;;;5088591;28;20044;-78
2022/09/18 02:00:21;;;;;;;9.90;1.67;;;9.90;99.90;;;;;;5038954;28;20087;-78
2022/09/18 02:02:53;;;;;;;16.52;1.58;;;9.90;99.90;;;;;;5087132;28;20052;-78
2022/09/18 02:05:52;;;;;;;10.88;2.08;;;9.90;99.90;;;;;;5089697;28;20106;-78
2022/09/18 02:08:32;;;;;;;8.35;1.15;;;9.80;99.90;;;;;;5062472;28;20054;-76
2022/09/18 02:11:01;;;;;;;8.02;1.52;;;9.90;99.90;;;;;;5083870;28;20069;-77
2022/09/18 02:13:33;;;;;;;7.50;1.42;;;11.40;99.90;;;;;;5082684;28;20035;-78
2022/09/18 02:16:04;;;;;;;12.75;2.03;;;9.80;99.90;;;;;;5087392;28;20487;-76
2022/09/18 02:18:36;;;;;;;7.75;1.27;;;10.70;99.90;;;;;;5082615;28;20075;-78
2022/09/18 02:21:02;;;;;;;12.32;1.45;;;9.80;99.90;;;;;;5087699;28;20044;-78
2022/09/18 02:23:30;;;;;;;12.80;1.40;;;9.90;99.90;;;;;;5086755;28;20044;-78
2022/09/18 02:25:59;;;;;;;13.48;1.50;;;9.90;99.90;;;;;;5087668;28;20040;-78
2022/09/18 02:28:27;;;;;;;11.13;1.15;;;10.00;99.90;;;;;;5063230;28;20056;-79
2022/09/18 02:30:53;;;;;;;12.20;1.60;;;10.00;99.90;;;;;;5087293;28;20119;-76
2022/09/18 02:33:31;;;;;;;8.57;1.38;;;9.90;99.90;;;;;;5070700;28;20476;-77
2022/09/18 02:36:16;;;;;;;9.10;1.23;;;8.60;99.90;;;;;;5088620;28;20028;-78
2022/09/18 02:38:48;;;;;;;9.13;1.20;;;9.90;99.90;;;;;;5081012;28;20050;-78
2022/09/18 02:41:33;;;;;;;10.57;1.42;;;9.90;99.90;;;;;;5070110;28;20044;-77
2022/09/18 02:44:02;;;;;;;;;;;8.90;99.90;;;;;;5087521;28;20480;-78
2022/09/18 02:46:56;;;;;;;8.90;1.05;;;9.90;99.90;;;;;;5112617;27;20061;-77
2022/09/18 02:49:56;;;;;;;15.05;1.67;;;9.90;99.90;;;;;;5089038;28;20513;-77
2022/09/18 02:52:47;;;;;;;10.15;1.80;;;9.90;99.90;;;;;;5087289;28;20040;-78
2022/09/18 02:55:20;;;;;;;10.95;1.17;;;9.90;99.90;;;;;;5087163;28;20499;-78
2022/09/18 02:57:52;;;;;;;10.88;1.23;;;10.00;99.90;;;;;;5070487;28;20052;-79
2022/09/18 03:00:19;;;;;;;11.38;0.98;;;10.00;99.90;;;;;;5086456;28;20036;-78
2022/09/18 03:02:46;;;;;;;13.02;1.40;;;10.00;99.90;;;;;;5086576;28;20146;-77
2022/09/18 03:05:12;;;;;;;11.60;1.88;;;10.00;99.90;;;;;;5086241;28;20051;-77
2022/09/18 03:07:37;;;;;;;8.50;0.88;;;10.80;99.90;;;;;;5086938;28;20111;-78
2022/09/18 03:10:03;;;;;;;8.82;1.20;;;10.00;99.90;;;;;;5081595;28;20544;-78
2022/09/18 03:12:29;;;;;;;6.93;1.40;;;10.00;99.90;;;;;;5067191;28;20040;-78
2022/09/18 03:14:55;;;;;;;17.38;1.60;;;10.00;99.90;;;;;;5086907;28;20040;-77
2022/09/18 03:17:20;;;;;;;7.38;1.70;;;11.40;99.90;;;;;;5086987;28;20384;-79
2022/09/18 03:19:46;;;;;;;11.77;1.42;;;10.00;99.90;;;;;;5086655;28;20043;-77
2022/09/18 03:22:12;;;;;;;9.90;1.08;;;10.10;99.90;;;;;;5086096;28;20715;-77
2022/09/18 03:24:38;;;;;;;11.25;1.25;;;10.00;99.90;;;;;;5087694;28;20040;-77
2022/09/18 03:27:04;;;;;;;7.22;1.15;;;10.00;99.90;;;;;;5087667;28;20047;-78
2022/09/18 03:29:30;;;;;;;7.15;1.58;;;10.10;99.90;;;;;;5086656;28;20089;-78
2022/09/18 03:31:55;;;;;;;6.15;0.90;;;10.00;99.90;;;;;;5086214;28;20047;-78
2022/09/18 03:34:21;;;;;;;5.75;1.13;;;10.10;99.90;;;;;;5087156;28;20032;-78
2022/09/18 03:36:47;;;;;;;5.40;0.70;;;10.00;99.90;;;;;;5087306;28;20104;-79
2022/09/18 03:39:13;;;;;;;12.48;2.15;;;10.10;99.90;;;;;;5086294;28;20130;-79
2022/09/18 03:41:39;;;;;;;6.88;0.73;;;10.10;99.90;;;;;;5086817;28;20369;-79
2022/09/18 03:44:04;;;;;;;6.43;0.75;;;11.50;99.90;;;;;;5086806;28;20044;-79
2022/09/18 03:46:30;;;;;;;4.38;0.80;;;10.10;99.90;;;;;;5086462;28;20058;-78
2022/09/18 03:48:56;;;;;;;11.27;0.80;;;10.10;99.90;;;;;;5086961;28;20116;-77
2022/09/18 03:51:21;;;;;;;10.20;0.80;;;10.20;99.90;;;;;;5070195;28;20040;-77
2022/09/18 03:53:49;;;;;;;6.50;0.80;;;10.00;99.90;;;;;;5087820;28;20115;-77
2022/09/18 03:56:15;;;;;;;9.77;1.05;;;10.10;99.90;;;;;;5088176;28;20044;-78
2022/09/18 03:58:41;;;;;;;4.80;0.70;;;10.00;99.90;;;;;;5086838;28;20048;-78
2022/09/18 04:01:07;;;;;;;8.90;0.73;;;10.00;99.90;;;;;;5086140;28;20040;-76
2022/09/18 04:03:35;;;;;;;6.35;0.60;;;10.00;99.90;;;;;;5087723;28;20607;-77
2022/09/18 04:06:01;;;;;;;4.90;0.70;;;11.10;99.90;;;;;;5086730;28;20044;-76
2022/09/18 04:08:27;;;;;;;5.43;0.65;;;10.00;99.90;;;;;;5067343;28;20449;-78
2022/09/18 04:10:53;;;;;;;8.55;0.63;;;10.00;99.90;;;;;;5082737;28;20123;-77
2022/09/18 04:13:19;;;;;;;5.00;0.73;;;10.00;99.90;;;;;;5087115;28;20453;-78
2022/09/18 04:15:48;;;;;;;5.68;0.70;;;10.00;99.90;;;;;;5080885;28;20380;-77
2022/09/18 04:18:14;;;;;;;2.75;0.40;;;10.00;99.90;;;;;;5088105;28;20047;-77
2022/09/18 04:20:40;;;;;;;2.97;0.75;;;10.00;99.90;;;;;;5087736;28;20092;-77
2022/09/18 04:23:06;;;;;;;4.68;0.57;;;10.20;99.90;;;;;;5085826;28;20061;-78
2022/09/18 04:25:31;;;;;;;7.63;1.02;;;9.90;99.90;;;;;;5086604;28;20044;-77
2022/09/18 04:27:57;;;;;;;3.80;0.63;;;9.90;99.90;;;;;;5119904;28;20044;-78
2022/09/18 04:30:23;;;;;;;10.13;1.38;;;9.90;99.90;;;;;;5087969;28;20051;-79
2022/09/18 04:32:49;;;;;;;9.80;1.40;;;10.10;99.90;;;;;;5073478;28;20044;-76
2022/09/18 04:35:15;;;;;;;4.93;0.55;;;9.90;99.90;;;;;;5072950;28;20123;-77
2022/09/18 04:37:42;;;;;;;6.25;0.80;;;10.00;99.90;;;;;;5091373;28;20532;-79
2022/09/18 04:40:09;;;;;;;4.20;0.50;;;9.90;99.90;;;;;;5090326;28;20522;-78
2022/09/18 04:42:35;;;;;;;2.80;0.55;;;10.00;99.90;;;;;;5086114;28;20043;-77
2022/09/18 04:45:01;;;;;;;4.65;1.05;;;11.30;99.90;;;;;;5071601;28;20043;-78
2022/09/18 04:47:27;;;;;;;5.80;0.73;;;10.00;99.90;;;;;;5089864;28;20097;-77
2022/09/18 04:49:53;;;;;;;5.10;0.60;;;10.00;99.90;;;;;;5070857;28;20044;-75
2022/09/18 04:52:18;;;;;;;8.73;1.00;;;10.50;99.90;;;;;;5089671;28;20039;-78
2022/09/18 04:54:44;;;;;;;9.15;1.42;;;10.00;99.90;;;;;;5089728;28;20129;-78
2022/09/18 04:57:10;;;;;;;8.38;0.90;;;10.00;99.90;;;;;;5089564;28;20044;-78
2022/09/18 04:59:35;;;;;;;6.70;0.68;;;10.00;99.90;;;;;;5089734;28;20032;-79
2022/09/18 05:02:01;;;;;;;6.90;1.05;;;11.30;99.90;;;;;;5123256;27;20056;-79
2022/09/18 05:04:27;;;;;;;4.85;1.10;;;10.10;99.90;;;;;;5090408;28;20101;-78
2022/09/18 05:06:52;;;;;;;6.93;1.30;;;10.10;99.90;;;;;;5091127;28;20408;-77
2022/09/18 05:09:18;;;;;;;5.03;0.70;;;10.10;99.90;;;;;;5081770;28;20032;-75
2022/09/18 05:11:43;;;;;;;5.05;0.93;;;10.10;99.90;;;;;;5089943;28;20514;-79
2022/09/18 05:14:09;;;;;;;9.48;0.90;;;10.10;99.90;;;;;;5091151;28;20036;-78
2022/09/18 05:16:35;;;;;;;7.50;1.08;;;10.20;99.90;;;;;;5091045;28;20627;-79
2022/09/18 05:19:00;;;;;;;6.85;0.68;;;10.20;99.90;;;;;;5088925;28;20442;-76
2022/09/18 05:21:26;;;;;;;4.05;0.77;;;11.40;99.90;;;;;;5106290;28;20483;-79
2022/09/18 05:23:52;;;;;;;8.15;1.00;;;10.20;99.90;;;;;;5089545;28;20586;-77
2022/09/18 05:26:17;;;;;;;6.13;1.08;;;10.20;99.90;;;;;;5123167;27;20109;-79
2022/09/18 05:28:43;;;;;;;8.13;1.02;;;11.60;99.90;;;;;;5089334;28;20042;-79
2022/09/18 05:31:09;;;;;;;5.70;0.70;;;10.70;99.90;;;;;;5122357;27;20036;-80
2022/09/18 05:33:35;;;;;;;7.43;0.88;;;10.30;99.90;;;;;;5120442;27;20464;-79
2022/09/18 05:36:03;;;;;;;5.13;0.77;;;10.30;99.90;;;;;;5092965;28;20040;-79
2022/09/18 05:38:28;;;;;;;6.93;0.50;;;10.30;99.90;;;;;;5086367;28;20036;-80
2022/09/18 05:40:59;;;;;;;9.23;0.98;;;11.70;99.90;;;;;;5082524;28;20037;-78
2022/09/18 05:43:25;;;;;;;10.38;0.88;;;11.30;99.90;;;;;;5079162;28;20040;-79
2022/09/18 05:45:50;;;;;;;4.85;0.50;;;10.40;99.90;;;;;;5067403;28;20048;-78
2022/09/18 05:48:17;;;;;;;3.15;0.45;;;10.20;99.90;;;;;;5087086;28;20040;-78
2022/09/18 05:50:42;;;;;;;6.93;1.00;;;10.90;99.90;;;;;;5087236;28;20070;-79
2022/09/18 05:53:13;;;;;;;8.13;1.05;;;10.30;99.90;;;;;;5061252;28;20040;-80
2022/09/18 05:55:39;;;;;;;6.95;0.70;;;10.30;99.90;;;;;;5088474;28;20052;-79
2022/09/18 05:58:06;;;;;;;8.25;0.82;;;10.30;99.90;;;;;;5082163;28;20059;-79
2022/09/18 06:00:34;;;;;;;7.85;1.45;;;10.30;99.90;;;;;;5086971;28;20052;-79
2022/09/18 06:03:05;;;;;;;8.05;1.38;;;10.30;99.90;;;;;;5083623;28;20089;-80
2022/09/18 06:05:33;;;;;;;7.07;1.08;;;10.30;99.90;;;;;;5062651;28;20123;-78
2022/09/18 06:08:00;;;;;;;5.20;1.00;;;10.30;99.90;;;;;;5066847;28;20173;-78
2022/09/18 06:10:27;;;;;;;7.65;0.80;;;10.30;99.90;;;;;;5086369;28;20074;-78
2022/09/18 06:13:03;;;;;;;13.38;1.20;;;10.30;99.90;;;;;;5071532;28;20503;-78
2022/09/18 06:15:29;;;;;;;6.85;0.93;;;10.30;99.90;;;;;;5070774;28;20047;-78
2022/09/18 06:17:55;;;;;;;8.85;1.25;;;10.30;99.90;;;;;;5089663;28;20032;-78
2022/09/18 06:20:21;;;;;;;7.57;0.80;;;10.30;99.90;;;;;;4718425;28;9999638;-78
2022/09/18 06:22:46;;;;;;;5.38;0.70;;;10.40;99.90;;;;;;5083936;28;20047;-78
2022/09/18 06:25:12;;;;;;;11.38;1.50;;;11.70;99.90;;;;;;5069409;28;20473;-78
2022/09/18 06:27:38;;;;;;;7.78;0.85;;;9.40;99.90;;;;;;5082224;28;20055;-78
2022/09/18 06:30:04;;;;;;;5.40;0.60;;;10.40;99.90;;;;;;5068660;28;20037;-77
2022/09/18 06:32:30;;;;;;;16.17;1.90;;;10.40;99.90;;;;;;5078711;28;20090;-78
2022/09/18 06:34:56;;;;;;;13.18;1.55;;;10.40;99.90;;;;;;5071571;28;20075;-78
2022/09/18 06:37:22;;;;;;;4.63;1.02;;;10.30;99.90;;;;;;5074939;28;20570;-77
2022/09/18 06:39:47;;;;;;;5.60;1.00;;;9.90;99.90;;;;;;5062394;28;20062;-79
2022/09/18 06:42:14;;;;;;;9.48;1.10;;;10.40;99.90;;;;;;5059142;28;20036;-79
2022/09/18 06:44:40;;;;;;;12.30;1.40;;;10.80;99.90;;;;;;5079334;28;20040;-78
2022/09/18 06:47:06;;;;;;;6.95;0.85;;;10.30;99.90;;;;;;5078590;28;20503;-79
2022/09/18 06:49:31;;;;;;;7.13;0.82;;;12.10;99.90;;;;;;5084574;28;20049;-78
2022/09/18 06:51:57;;;;;;;6.57;1.13;;;10.40;99.90;;;;;;5086929;28;20040;-79
2022/09/18 06:54:23;;;;;;;8.18;0.70;;;10.20;99.90;;;;;;5066582;28;20105;-79
2022/09/18 06:56:48;;;;;;;13.25;1.30;;;10.10;99.90;;;;;;5084366;28;20048;-78
2022/09/18 06:59:14;;;;;;;7.53;0.90;;;10.40;99.90;;;;;;5119568;27;20051;-79
2022/09/18 07:01:40;;;;;;;9.13;1.63;;;10.40;99.90;;;;;;5086596;28;20040;-78
2022/09/18 07:04:05;;;;;;;8.02;1.67;;;10.40;99.90;;;;;;5086050;28;20127;-79
2022/09/18 07:06:31;;;;;;;8.13;0.95;;;10.40;99.90;;;;;;5102426;28;20131;-79
2022/09/18 07:08:57;;;;;;;10.23;1.30;;;12.20;99.90;;;;;;5067391;28;20048;-79
2022/09/18 07:11:22;;;;;;;8.20;1.48;;;10.40;99.90;;;;;;5085117;28;20131;-79
2022/09/18 07:13:48;;;;;;;6.13;2.10;;;11.60;99.90;;;;;;5068650;28;20071;-79
2022/09/18 07:16:14;;;;;;;9.70;2.13;;;11.40;99.90;;;;;;5083264;28;20048;-78
2022/09/18 07:18:40;;;;;;;10.18;2.05;;;10.40;99.90;;;;;;5074625;28;20040;-78
2022/09/18 07:21:05;;;;;;;9.75;1.35;;;11.80;99.90;;;;;;5063318;28;20093;-78
2022/09/18 07:23:32;;;;;;;11.55;1.67;;;10.50;99.90;;;;;;5062225;28;20048;-79
2022/09/18 07:26:03;;;;;;;10.15;1.38;;;10.40;99.90;;;;;;5077879;28;20471;-78
2022/09/18 07:28:29;;;;;;;9.00;1.38;;;10.60;99.90;;;;;;5082931;28;20051;-79
2022/09/18 07:30:55;;;;;;;8.52;1.45;;;10.40;99.90;;;;;;5055861;28;20036;-78
2022/09/18 07:33:21;;;;;;;11.60;1.50;;;10.30;99.90;;;;;;5062185;28;20533;-79
2022/09/18 07:35:47;;;;;;;9.90;0.80;;;12.00;99.90;;;;;;5076641;28;20076;-79
2022/09/18 07:38:12;;;;;;;8.13;0.98;;;12.30;99.90;;;;;;5088348;28;20074;-79
2022/09/18 07:40:42;;;;;;;7.00;1.30;;;10.40;99.90;;;;;;5072814;28;20400;-78
2022/09/18 07:43:09;;;;;;;5.95;1.30;;;10.40;99.90;;;;;;5065204;28;20632;-81
2022/09/18 07:45:36;;;;;;;8.38;1.10;;;11.60;99.90;;;;;;5076053;28;20036;-80
2022/09/18 07:48:04;;;;;;;6.43;0.82;;;10.30;99.90;;;;;;5057575;28;20110;-80
2022/09/18 07:50:30;;;;;;;4.45;0.90;;;10.40;99.90;;;;;;5076898;28;20111;-81
2022/09/18 07:52:58;;;;;;;14.38;1.25;;;10.30;99.90;;;;;;5054003;28;20040;-81
2022/09/18 07:55:25;;;;;;;6.63;0.70;;;11.20;99.90;;;;;;5076145;28;20036;-78
2022/09/18 07:57:59;;;;;;;6.88;0.95;;;10.40;99.90;;;;;;5072890;28;20052;-78
2022/09/18 08:00:26;;;;;;;6.72;0.82;;;10.40;99.90;;;;;;5064090;28;20061;-83
2022/09/18 08:03:05;;;;;;;5.40;1.02;;;10.50;99.90;;;;;;5077984;28;20044;-85
2022/09/18 08:05:31;;;;;;;8.18;0.75;;;10.50;99.90;;;;;;5068183;28;20607;-81
2022/09/18 08:08:04;;;;;;;8.27;1.20;;;10.50;99.90;;;;;;5070905;28;20417;-78
2022/09/18 08:10:30;;;;;;;7.55;1.02;;;10.50;99.90;;;;;;5087276;28;20429;-80
2022/09/18 08:12:56;;;;;;;10.27;1.52;;;10.60;99.90;;;;;;5071006;28;20040;-80
2022/09/18 08:15:22;;;;;;;7.85;0.88;;;10.50;99.90;;;;;;5089216;28;20043;-80
2022/09/18 08:17:48;;;;;;;10.98;1.40;;;10.20;99.90;;;;;;5100171;28;20036;-92
2022/09/18 08:20:14;;;;;;;4.53;0.90;;;10.60;99.90;;;;;;5065997;28;20403;-79
2022/09/18 08:22:41;;;;;;;8.27;1.02;;;11.40;99.90;;;;;;5074042;28;20037;-79
2022/09/18 08:25:07;;;;;;;323.20;287.50;;;12.40;99.90;;;;;;5077640;28;20040;-79
2022/09/18 08:27:40;;;;;;;13.73;5.53;;;10.60;99.90;;;;;;5077769;28;20098;-79
2022/09/18 08:30:09;;;;;;;11.30;1.23;;;10.60;99.90;;;;;;5071490;28;20040;-79
2022/09/18 08:32:35;;;;;;;6.45;1.35;;;10.60;99.90;;;;;;5073357;28;20063;-80
2022/09/18 08:35:02;;;;;;;5.93;0.95;;;10.50;99.90;;;;;;5075613;28;20051;-80
2022/09/18 08:37:29;;;;;;;6.70;0.82;;;11.70;99.90;;;;;;5064658;28;20593;-79
2022/09/18 08:39:55;;;;;;;5.22;0.68;;;12.00;99.90;;;;;;5075743;28;20044;-78
2022/09/18 08:42:39;;;;;;;8.30;0.90;;;10.60;99.90;;;;;;5073578;28;20048;-81
2022/09/18 08:45:24;;;;;;;6.93;0.68;;;10.60;99.90;;;;;;5081131;28;20047;-78
2022/09/18 08:48:01;;;;;;;8.05;1.00;;;10.50;99.90;;;;;;5088821;28;20055;-79
2022/09/18 08:50:33;;;;;;;9.27;0.70;;;11.20;99.90;;;;;;5089692;28;20093;-77
2022/09/18 08:53:05;;;;;;;5.88;0.63;;;10.60;99.90;;;;;;5087842;28;20078;-80
2022/09/18 08:55:38;;;;;;;3.85;0.55;;;10.60;99.90;;;;;;5088188;28;20092;-77
2022/09/18 08:58:23;;;;;;;6.03;0.70;;;10.90;99.90;;;;;;5086709;28;20066;-78
2022/09/18 09:00:57;;;;;;;6.03;1.75;;;10.60;99.90;;;;;;5087598;28;20524;-77
2022/09/18 09:03:48;;;;;;;3.92;0.45;;;10.60;99.90;;;;;;5082658;28;20609;-77
2022/09/18 09:06:38;;;;;;;3.38;0.52;;;10.60;99.90;;;;;;5117638;27;20129;-78
2022/09/18 09:09:33;;;;;;;8.07;1.20;;;10.60;99.90;;;;;;5078397;28;20036;-78
2022/09/18 09:12:46;;;;;;;5.57;0.40;;;10.50;99.90;;;;;;5029767;28;20142;-79
2022/09/18 09:15:26;;;;;;;8.07;0.50;;;10.60;99.90;;;;;;5030302;28;20056;-78
2022/09/18 09:18:16;;;;;;;13.10;1.98;;;10.60;99.90;;;;;;5117302;27;20044;-79
2022/09/18 09:20:56;;;;;;;4.55;0.60;;;10.50;99.90;;;;;;5113725;27;20040;-78
2022/09/18 09:23:25;;;;;;;8.55;1.23;;;10.50;99.90;;;;;;5086916;28;20422;-76
2022/09/18 09:25:53;;;;;;;6.68;0.90;;;10.50;99.90;;;;;;5122021;27;20076;-77
2022/09/18 09:28:29;;;;;;;5.88;0.63;;;10.50;99.90;;;;;;5087601;28;20036;-78
2022/09/18 09:30:59;;;;;;;10.82;1.10;;;10.50;99.90;;;;;;5086465;28;20039;-80
2022/09/18 09:33:38;;;;;;;7.13;0.57;;;10.50;99.90;;;;;;5087198;28;20066;-79
2022/09/18 09:36:10;;;;;;;9.63;1.38;;;10.40;99.90;;;;;;5062710;28;20035;-80
2022/09/18 09:38:58;;;;;;;11.73;1.13;;;11.50;99.90;;;;;;5069721;28;20040;-79
2022/09/18 09:41:49;;;;;;;8.70;1.50;;;10.40;99.90;;;;;;5088181;28;20040;-78
2022/09/18 09:44:46;;;;;;;6.38;0.95;;;10.40;99.90;;;;;;5077570;28;20383;-79
2022/09/18 09:47:30;;;;;;;6.10;0.63;;;10.40;99.90;;;;;;5063082;28;20044;-78
2022/09/18 09:50:01;;;;;;;;;;;8.80;99.90;;;;;;5095742;28;20050;-79
2022/09/18 09:52:29;;;;;;;6.90;1.42;;;11.10;99.90;;;;;;5064894;28;19978;-77
2022/09/18 09:54:59;;;;;;;4.78;1.13;;;10.30;99.90;;;;;;5085463;28;20040;-75
2022/09/18 09:57:58;;;;;;;6.93;0.80;;;11.60;99.90;;;;;;5085355;28;20050;-75
2022/09/18 10:00:24;;;;;;;8.70;0.95;;;10.30;99.90;;;;;;5086427;28;20040;-76
2022/09/18 10:03:24;;;;;;;7.90;0.98;;;11.90;99.90;;;;;;5085153;28;20044;-79
2022/09/18 10:06:01;;;;;;;8.60;1.52;;;10.40;99.90;;;;;;5087483;28;20055;-75
2022/09/18 10:08:51;;;;;;;7.03;0.75;;;10.40;99.90;;;;;;5085927;28;20036;-77
2022/09/18 10:11:17;;;;;;;10.02;1.35;;;10.40;99.90;;;;;;5079703;28;20050;-77
2022/09/18 10:13:52;;;;;;;9.05;0.82;;;12.10;99.90;;;;;;5085670;28;20134;-75
2022/09/18 10:16:29;;;;;;;7.22;0.82;;;11.70;99.90;;;;;;5086536;28;20124;-75
2022/09/18 10:18:56;;;;;;;6.40;0.88;;;10.40;99.90;;;;;;5068227;28;20051;-75
2022/09/18 10:21:25;;;;;;;6.20;0.80;;;11.10;99.90;;;;;;5086624;28;20145;-77
2022/09/18 10:23:59;;;;;;;7.38;0.93;;;10.50;99.90;;;;;;5086487;28;20415;-77
2022/09/18 10:26:31;;;;;;;4.65;1.08;;;10.50;99.90;;;;;;5085530;28;20115;-78
2022/09/18 10:28:57;;;;;;;9.13;1.40;;;10.50;99.90;;;;;;5069056;28;20036;-77
2022/09/18 10:31:56;;;;;;;13.30;3.80;;;10.60;99.90;;;;;;5086703;28;20048;-78
2022/09/18 10:34:42;;;;;;;5.68;1.02;;;10.70;99.90;;;;;;5081800;28;20032;-78
2022/09/18 10:37:13;;;;;;;13.13;1.95;;;10.70;99.90;;;;;;5079557;28;20040;-78
2022/09/18 10:39:51;;;;;;;11.82;1.38;;;10.70;99.90;;;;;;5088245;28;20036;-78
2022/09/18 10:42:20;;;;;;;11.20;1.30;;;10.80;99.90;;;;;;5080282;28;20051;-78
2022/09/18 10:44:52;;;;;;;13.73;1.55;;;10.80;99.90;;;;;;5062182;28;20070;-78
2022/09/18 10:47:26;;;;;;;12.65;2.08;;;10.40;99.90;;;;;;5069304;28;20055;-77
2022/09/18 10:49:56;;;;;;;18.55;1.63;;;11.20;99.90;;;;;;5070082;28;20121;-77
2022/09/18 10:52:33;;;;;;;12.07;1.30;;;10.90;99.90;;;;;;5077427;28;20032;-76
2022/09/18 10:55:11;;;;;;;11.45;2.00;;;11.70;99.90;;;;;;5081107;28;20111;-78
2022/09/18 10:57:55;;;;;;;9.93;1.40;;;11.00;99.90;;;;;;5079003;28;20082;-76
2022/09/18 11:00:32;;;;;;;8.52;1.55;;;11.00;99.90;;;;;;5076026;28;20391;-78
2022/09/18 11:03:02;;;;;;;14.20;1.45;;;11.10;99.90;;;;;;5070410;28;20092;-78
2022/09/18 11:05:31;;;;;;;16.15;1.85;;;11.10;99.90;;;;;;5062616;28;20044;-78
2022/09/18 11:07:59;;;;;;;16.08;2.38;;;11.20;99.90;;;;;;5076349;28;20059;-77
2022/09/18 11:10:28;;;;;;;10.85;2.08;;;12.50;99.90;;;;;;5075391;28;20090;-77
2022/09/18 11:12:56;;;;;;;9.40;1.48;;;11.20;99.90;;;;;;5077819;28;20048;-77
2022/09/18 11:15:27;;;;;;;14.13;1.70;;;11.30;99.90;;;;;;5070877;28;20040;-77
2022/09/18 11:17:58;;;;;;;12.00;2.95;;;11.30;99.90;;;;;;5078417;28;20488;-77
2022/09/18 11:20:31;;;;;;;11.40;2.20;;;11.30;99.90;;;;;;5072875;28;20098;-77
2022/09/18 11:23:36;;;;;;;18.30;2.13;;;11.40;99.90;;;;;;5080160;28;20083;-77
2022/09/18 11:26:25;;;;;;;11.50;1.83;;;11.60;99.90;;;;;;5012376;28;20077;-76
2022/09/18 11:29:01;;;;;;;8.93;1.60;;;11.50;99.90;;;;;;5022317;28;20065;-77
2022/09/18 11:31:42;;;;;;;12.82;1.45;;;11.60;99.90;;;;;;5053253;28;20052;-77
2022/09/18 11:34:31;;;;;;;10.90;1.55;;;11.70;99.90;;;;;;5069179;28;20036;-77
2022/09/18 11:37:01;;;;;;;8.13;1.00;;;11.70;99.90;;;;;;5068960;28;20416;-77
2022/09/18 11:39:39;;;;;;;14.63;1.80;;;12.00;99.90;;;;;;5068234;28;20051;-76
2022/09/18 11:42:12;;;;;;;9.70;1.58;;;11.80;99.90;;;;;;5068929;28;20115;-76
2022/09/18 11:44:38;;;;;;;10.75;1.38;;;11.90;99.90;;;;;;5084029;28;20404;-76
2022/09/18 11:47:04;;;;;;;11.00;1.65;;;11.80;99.90;;;;;;5071569;28;20040;-76
2022/09/18 11:49:59;;;;;;;11.48;1.48;;;11.90;99.90;;;;;;5076282;28;20131;-76
2022/09/18 11:52:52;;;;;;;11.18;1.85;;;12.00;99.90;;;;;;5075869;28;20384;-76
2022/09/18 11:55:36;;;;;;;10.70;2.20;;;11.70;99.90;;;;;;5082871;28;20466;-76
2022/09/18 11:58:09;;;;;;;10.75;1.55;;;12.10;99.90;;;;;;5085162;28;21032;-76
2022/09/18 12:00:41;;;;;;;13.50;2.05;;;12.10;99.90;;;;;;5069399;28;20123;-76
2022/09/18 12:03:43;;;;;;;14.25;1.60;;;12.20;99.90;;;;;;5086288;28;20044;-76
2022/09/18 12:06:26;;;;;;;14.50;1.33;;;12.20;99.90;;;;;;5047381;28;20081;-77
2022/09/18 12:09:19;;;;;;;9.73;1.20;;;12.30;99.90;;;;;;5085036;28;20039;-76
2022/09/18 12:12:10;;;;;;;8.73;1.08;;;12.30;99.90;;;;;;5085967;28;20044;-77
2022/09/18 12:14:41;;;;;;;7.70;1.02;;;12.30;99.90;;;;;;5081194;28;20417;-77
2022/09/18 12:17:19;;;;;;;5.38;0.50;;;12.30;99.90;;;;;;5069714;28;20028;-76
2022/09/18 12:19:57;;;;;;;23.67;3.78;;;12.30;99.90;;;;;;5087032;28;20110;-77
2022/09/18 12:22:29;;;;;;;8.23;0.93;;;12.30;99.90;;;;;;5062437;28;20036;-77
2022/09/18 12:24:56;;;;;;;7.32;1.23;;;12.20;99.90;;;;;;5086444;28;20086;-76
2022/09/18 12:27:46;;;;;;;7.15;1.08;;;13.90;99.90;;;;;;5087577;28;20040;-77
2022/09/18 12:30:18;;;;;;;22.48;4.30;;;12.20;99.90;;;;;;5087506;28;20040;-77
2022/09/18 12:33:22;;;;;;;15.70;5.07;;;12.20;99.90;;;;;;5086620;28;20055;-75
2022/09/18 12:36:20;;;;;;;5.90;1.38;;;12.20;99.90;;;;;;5086214;28;20040;-77
2022/09/18 12:39:06;;;;;;;10.85;1.58;;;12.20;99.90;;;;;;5082518;28;20044;-76
2022/09/18 12:41:40;;;;;;;4.38;0.93;;;13.40;99.90;;;;;;5080940;28;20071;-77
2022/09/18 12:44:26;;;;;;;9.80;0.95;;;12.20;99.90;;;;;;5069098;28;20068;-77
2022/09/18 12:47:18;;;;;;;6.85;0.85;;;12.20;99.90;;;;;;5086130;28;20055;-75
2022/09/18 12:49:58;;;;;;;6.80;2.85;;;12.20;99.90;;;;;;5083139;28;20055;-75
2022/09/18 12:52:43;;;;;;;11.88;2.88;;;12.20;99.90;;;;;;5078775;28;20040;-75
2022/09/18 12:55:29;;;;;;;8.40;0.65;;;12.20;99.90;;;;;;5088961;28;20063;-76
2022/09/18 12:58:33;;;;;;;8.68;1.15;;;12.30;99.90;;;;;;5072967;28;20123;-77
2022/09/18 13:01:02;;;;;;;6.43;0.95;;;12.30;99.90;;;;;;5072312;28;20036;-76
2022/09/18 13:03:38;;;;;;;6.38;0.70;;;12.30;99.90;;;;;;5089082;28;20507;-77
2022/09/18 13:06:10;;;;;;;11.02;2.97;;;12.30;99.90;;;;;;5090883;28;20036;-78
2022/09/18 13:08:44;;;;;;;8.30;3.20;;;12.40;99.90;;;;;;5089036;28;20051;-77
2022/09/18 13:11:19;;;;;;;9.82;1.77;;;12.40;99.90;;;;;;5072218;28;20040;-77
2022/09/18 13:13:52;;;;;;;8.35;1.90;;;12.40;99.90;;;;;;5086122;28;20048;-75